Aviation Digital Data Service (ADDS)

Output produced by METARs form (0525 UTC 25 September 2016)
found at http://aviationweather.gov/adds/metars/
 
KARA 250453Z AUTO 00000KT 10SM CLR 23/21 A2999 RMK AO2 SLP156 T02330211